Terminal Aerodrome Forecast
Issued by NWS

Home | Current Version | Previous Version | Text Only | Print | Product List | Glossary On
Versions: 1 2 3 4 5 6 7 8 9 10 11 12 13 14 15
000
FTUS45 KABQ 260500
TAFLVS
TAF
KLVS 260539Z 2606/2706 18010KT P6SM SCT090
     FM261100 18008KT P6SM BKN060
     FM261900 17011G21KT P6SM -TSRA OVC035CB
     FM262300 12010KT P6SM -SHRA OVC015
     FM270100 05010KT P6SM VCSH OVC025
     FM270300 03010KT 4SM -RA BR OVC015=

USA.gov is the U.S. government's official web portal to all federal, state and local government web resources and services.